Time;durP1;ratioP1;P1;durP2;ratioP2;P2;SDS_P1;SDS_P2;PMS_P1;PMS_P2;Temp;Humidity;BMP_temperature;BMP_pressure;BME280_temperature;BME280_humidity;BME280_pressure;Samples;Min_cycle;Max_cycle;Signal;HPM_P1;HPM_P2
2021/06/19 00:01:03;;;;;;;3.65;2.65;;;26.90;55.90;;;;;;5025768;28;20030;-65
2021/06/19 00:03:28;;;;;;;4.43;3.00;;;26.90;55.90;;;;;;5006415;28;20531;-67
2021/06/19 00:05:54;;;;;;;4.47;3.05;;;26.90;56.00;;;;;;5003398;28;20049;-65
2021/06/19 00:08:23;;;;;;;4.70;2.70;;;26.90;55.90;;;;;;5009208;28;20037;-61
2021/06/19 00:10:48;;;;;;;4.85;3.00;;;26.90;55.90;;;;;;5008599;28;20109;-65
2021/06/19 00:13:14;;;;;;;4.30;2.45;;;26.90;56.00;;;;;;5006024;28;20133;-64
2021/06/19 00:15:40;;;;;;;4.05;2.55;;;26.90;55.90;;;;;;5006458;28;20120;-65
2021/06/19 00:18:06;;;;;;;3.20;2.88;;;26.90;55.80;;;;;;5010393;28;20133;-65
2021/06/19 00:20:32;;;;;;;5.95;3.38;;;26.90;55.80;;;;;;5008783;28;20034;-65
2021/06/19 00:22:57;;;;;;;5.40;2.55;;;26.90;55.70;;;;;;5002570;28;20026;-65
2021/06/19 00:25:26;;;;;;;3.28;2.50;;;26.90;55.70;;;;;;5002335;28;20095;-59
2021/06/19 00:27:52;;;;;;;5.22;2.85;;;27.00;55.70;;;;;;5009792;28;20056;-64
2021/06/19 00:30:19;;;;;;;3.38;2.38;;;27.00;55.70;;;;;;5006610;28;20034;-65
2021/06/19 00:32:45;;;;;;;6.88;3.42;;;26.90;55.70;;;;;;5011264;28;20025;-64
2021/06/19 00:35:12;;;;;;;2.85;2.40;;;26.80;55.70;;;;;;5006261;28;20034;-65
2021/06/19 00:37:38;;;;;;;3.50;2.90;;;26.80;55.70;;;;;;5024143;28;20042;-64
2021/06/19 00:40:09;;;;;;;5.63;2.83;;;26.80;55.60;;;;;;5001226;28;20388;-64
2021/06/19 00:42:35;;;;;;;4.13;2.45;;;26.80;55.60;;;;;;5009344;28;20546;-65
2021/06/19 00:45:01;;;;;;;4.03;2.53;;;26.80;55.60;;;;;;5005473;28;20030;-64
2021/06/19 00:47:28;;;;;;;4.22;2.80;;;26.80;55.60;;;;;;5003508;28;20098;-65
2021/06/19 00:49:54;;;;;;;4.10;2.78;;;26.80;55.50;;;;;;5005957;28;20038;-64
2021/06/19 00:52:20;;;;;;;5.30;2.65;;;26.80;55.60;;;;;;5010684;28;20057;-65
2021/06/19 00:54:46;;;;;;;4.60;2.53;;;26.90;55.60;;;;;;5007851;28;20073;-65
2021/06/19 00:57:12;;;;;;;5.35;3.78;;;26.80;55.50;;;;;;5010559;28;20112;-65
2021/06/19 00:59:39;;;;;;;6.15;2.67;;;26.90;55.60;;;;;;5007113;28;20030;-65
2021/06/19 01:02:04;;;;;;;4.13;2.85;;;26.80;55.50;;;;;;5033142;28;20099;-67
2021/06/19 01:04:31;;;;;;;3.08;2.20;;;26.80;55.50;;;;;;5010005;28;20426;-66
2021/06/19 01:06:59;;;;;;;4.68;2.80;;;26.80;55.50;;;;;;5011985;28;20372;-64
2021/06/19 01:09:25;;;;;;;5.32;2.60;;;26.80;55.50;;;;;;5011528;28;20485;-64
2021/06/19 01:11:51;;;;;;;8.18;3.13;;;26.90;55.60;;;;;;5010627;28;20121;-64
2021/06/19 01:14:18;;;;;;;4.20;2.72;;;26.80;55.50;;;;;;5012415;28;20040;-66
2021/06/19 01:16:47;;;;;;;4.88;2.40;;;26.80;55.50;;;;;;5011474;28;20060;-64
2021/06/19 01:19:14;;;;;;;3.80;2.35;;;26.80;55.60;;;;;;5012178;28;20038;-65
2021/06/19 01:21:40;;;;;;;5.57;2.40;;;26.80;55.60;;;;;;5011034;28;20038;-65
2021/06/19 01:24:11;;;;;;;4.13;2.40;;;26.80;55.60;;;;;;5012231;28;20040;-66
2021/06/19 01:26:37;;;;;;;5.70;2.78;;;26.80;55.60;;;;;;5011527;28;20360;-64
2021/06/19 01:29:03;;;;;;;4.63;2.20;;;26.80;55.60;;;;;;5011782;28;20041;-63
2021/06/19 01:31:31;;;;;;;6.53;2.75;;;26.80;55.60;;;;;;5010974;28;20434;-64
2021/06/19 01:33:57;;;;;;;5.22;2.55;;;26.80;55.60;;;;;;5011666;28;20026;-64
2021/06/19 01:36:23;;;;;;;3.65;2.33;;;26.80;55.60;;;;;;5010884;28;20040;-60
2021/06/19 01:38:51;;;;;;;3.13;2.22;;;26.80;55.60;;;;;;5011471;28;20475;-64
2021/06/19 01:41:18;;;;;;;5.43;2.78;;;26.80;55.60;;;;;;5011987;28;20088;-63
2021/06/19 01:43:45;;;;;;;5.10;2.33;;;26.80;55.60;;;;;;5011104;28;20114;-63
2021/06/19 01:46:12;;;;;;;5.00;2.42;;;26.80;55.60;;;;;;5011636;28;20040;-64
2021/06/19 01:48:38;;;;;;;4.07;2.63;;;26.80;55.70;;;;;;5010957;28;20109;-64
2021/06/19 01:51:10;;;;;;;4.80;2.08;;;26.80;55.70;;;;;;5011262;28;20037;-65
2021/06/19 01:53:41;;;;;;;7.13;2.83;;;26.80;55.70;;;;;;5011041;28;20030;-64
2021/06/19 01:56:08;;;;;;;4.13;2.57;;;26.80;55.70;;;;;;5011635;28;20026;-64
2021/06/19 01:58:34;;;;;;;3.78;2.72;;;26.80;55.70;;;;;;5042632;28;20418;-65
2021/06/19 02:01:02;;;;;;;4.78;3.15;;;26.80;55.70;;;;;;5011374;28;20080;-65
2021/06/19 02:03:27;;;;;;;3.63;2.30;;;26.80;55.70;;;;;;5009350;28;20114;-64
2021/06/19 02:05:53;;;;;;;4.63;2.97;;;26.80;55.70;;;;;;5011606;28;20104;-66
2021/06/19 02:08:20;;;;;;;5.10;2.42;;;26.80;55.70;;;;;;5010635;28;20088;-66
2021/06/19 02:10:46;;;;;;;4.78;2.30;;;26.80;55.70;;;;;;5010258;28;20064;-62
2021/06/19 02:13:12;;;;;;;4.53;2.53;;;26.80;55.70;;;;;;5011527;28;20467;-66
2021/06/19 02:15:41;;;;;;;4.05;2.28;;;26.80;55.70;;;;;;5010246;28;20088;-66
2021/06/19 02:18:07;;;;;;;4.65;2.72;;;26.80;55.80;;;;;;5026338;28;20033;-62
2021/06/19 02:20:33;;;;;;;4.90;2.08;;;26.80;55.80;;;;;;5010825;28;21637;-65
2021/06/19 02:22:59;;;;;;;5.25;3.00;;;26.80;55.70;;;;;;5019612;28;20030;-65
2021/06/19 02:25:29;;;;;;;4.32;2.42;;;26.80;55.70;;;;;;5011233;28;20391;-61
2021/06/19 02:27:57;;;;;;;3.58;2.40;;;26.80;55.70;;;;;;5011042;28;20471;-65
2021/06/19 02:30:30;;;;;;;5.55;2.80;;;26.80;55.70;;;;;;5011171;28;20475;-67
2021/06/19 02:32:56;;;;;;;4.15;2.42;;;26.80;55.70;;;;;;5011148;28;20033;-67
2021/06/19 02:35:25;;;;;;;5.70;2.45;;;26.80;55.80;;;;;;5010904;28;20038;-65
2021/06/19 02:37:51;;;;;;;5.00;2.67;;;26.80;55.80;;;;;;5010584;28;20034;-65
2021/06/19 02:40:17;;;;;;;3.30;2.45;;;26.80;55.80;;;;;;5011422;28;20478;-65
2021/06/19 02:42:43;;;;;;;4.68;2.65;;;26.80;55.80;;;;;;5025660;28;20033;-65
2021/06/19 02:45:12;;;;;;;3.42;2.10;;;26.80;55.80;;;;;;5043156;28;20383;-65
2021/06/19 02:47:44;;;;;;;2.47;1.85;;;26.70;55.70;;;;;;5013085;28;20036;-65
2021/06/19 02:50:10;;;;;;;;;;;26.80;55.80;;;;;;5015012;28;20062;-65
2021/06/19 02:52:43;;;;;;;6.25;2.72;;;26.70;55.80;;;;;;5014176;28;19917;-65
2021/06/19 02:55:20;;;;;;;5.10;2.70;;;26.70;55.80;;;;;;5014798;28;20121;-65
2021/06/19 02:57:47;;;;;;;4.07;2.10;;;26.70;55.80;;;;;;5014107;28;20053;-66
2021/06/19 03:00:15;;;;;;;4.57;2.20;;;26.70;55.80;;;;;;5014819;28;20036;-63
2021/06/19 03:02:41;;;;;;;5.28;2.38;;;26.70;55.80;;;;;;5013964;28;20033;-66
2021/06/19 03:05:09;;;;;;;4.22;2.65;;;26.70;55.90;;;;;;5014722;28;20033;-66
2021/06/19 03:07:35;;;;;;;4.93;2.20;;;26.70;55.80;;;;;;5013905;28;20022;-66
2021/06/19 03:10:01;;;;;;;2.88;2.20;;;26.80;55.90;;;;;;5013950;28;20128;-65
2021/06/19 03:12:27;;;;;;;4.00;2.47;;;26.70;55.90;;;;;;5014208;28;20112;-60
2021/06/19 03:14:54;;;;;;;5.28;2.28;;;26.70;55.90;;;;;;5014670;28;20117;-65
2021/06/19 03:17:21;;;;;;;4.53;2.63;;;26.70;55.90;;;;;;5014441;28;20395;-65
2021/06/19 03:19:46;;;;;;;5.03;2.38;;;26.70;56.00;;;;;;5013570;28;20092;-62
2021/06/19 03:22:12;;;;;;;4.55;2.00;;;26.70;56.00;;;;;;5014215;28;20029;-66
2021/06/19 03:24:39;;;;;;;7.22;2.88;;;26.70;56.00;;;;;;5013342;28;20084;-65
2021/06/19 03:27:05;;;;;;;4.35;2.47;;;26.70;55.90;;;;;;5014480;28;20030;-66
2021/06/19 03:29:31;;;;;;;6.35;3.10;;;26.70;56.00;;;;;;5013626;28;20036;-64
2021/06/19 03:31:56;;;;;;;4.65;2.50;;;26.70;56.00;;;;;;5012746;28;20108;-65
2021/06/19 03:34:22;;;;;;;4.53;2.28;;;26.70;56.00;;;;;;5014150;28;20018;-66
2021/06/19 03:36:48;;;;;;;3.45;2.35;;;26.70;56.10;;;;;;5013066;28;20109;-66
2021/06/19 03:39:15;;;;;;;3.70;2.33;;;26.70;56.10;;;;;;5013896;28;20427;-66
2021/06/19 03:41:44;;;;;;;4.65;2.55;;;26.70;56.10;;;;;;5013325;28;20040;-66
2021/06/19 03:44:11;;;;;;;3.50;2.50;;;26.70;56.10;;;;;;5014464;28;20068;-66
2021/06/19 03:46:39;;;;;;;4.40;2.35;;;26.70;56.10;;;;;;5013071;28;20475;-65
2021/06/19 03:49:05;;;;;;;5.50;2.20;;;26.70;56.10;;;;;;5006319;28;20038;-66
2021/06/19 03:51:30;;;;;;;6.28;2.33;;;26.70;56.20;;;;;;5012700;28;20395;-61
2021/06/19 03:53:56;;;;;;;2.85;2.28;;;26.70;56.20;;;;;;5013830;28;20109;-66
2021/06/19 03:56:21;;;;;;;5.00;2.22;;;26.70;56.20;;;;;;5013796;28;20037;-66
2021/06/19 03:58:47;;;;;;;6.28;3.67;;;26.70;56.30;;;;;;5012251;28;20263;-65
2021/06/19 04:01:13;;;;;;;3.13;2.08;;;26.70;56.20;;;;;;5013245;28;20121;-65
2021/06/19 04:03:39;;;;;;;3.53;2.33;;;26.70;56.20;;;;;;5012680;28;20030;-66
2021/06/19 04:06:05;;;;;;;4.53;2.40;;;26.70;56.30;;;;;;5013507;28;20103;-66
2021/06/19 04:08:30;;;;;;;4.63;2.53;;;26.70;56.30;;;;;;5013109;28;20104;-61
2021/06/19 04:10:56;;;;;;;3.40;2.50;;;26.70;56.30;;;;;;5013639;28;20113;-66
2021/06/19 04:13:22;;;;;;;3.00;2.40;;;26.70;56.30;;;;;;5013318;28;20514;-66
2021/06/19 04:15:47;;;;;;;4.75;2.22;;;26.70;56.30;;;;;;5012811;28;20022;-63
2021/06/19 04:18:13;;;;;;;3.20;2.10;;;26.70;56.30;;;;;;5012276;28;20026;-64
2021/06/19 04:20:38;;;;;;;3.97;1.90;;;26.70;56.40;;;;;;5012386;28;20030;-64
2021/06/19 04:23:04;;;;;;;3.45;2.35;;;26.70;56.40;;;;;;5013136;28;20715;-65
2021/06/19 04:25:30;;;;;;;3.85;2.50;;;26.70;56.40;;;;;;5012710;28;20033;-60
2021/06/19 04:27:57;;;;;;;4.82;2.58;;;26.70;56.40;;;;;;5013046;28;20049;-66
2021/06/19 04:30:24;;;;;;;4.85;2.55;;;26.70;56.30;;;;;;5012662;28;20099;-66
2021/06/19 04:32:52;;;;;;;6.43;2.63;;;26.70;56.40;;;;;;5012320;28;20676;-66
2021/06/19 04:35:19;;;;;;;4.90;2.53;;;26.70;56.40;;;;;;5012878;28;20395;-66
2021/06/19 04:37:45;;;;;;;5.72;2.60;;;26.70;56.30;;;;;;5011843;28;20487;-64
2021/06/19 04:43:09;;;;;;;4.47;2.25;;;26.70;56.40;;;;;;5007422;28;20121;-66
2021/06/19 04:45:35;;;;;;;3.50;2.40;;;26.70;56.40;;;;;;5011890;28;20042;-66
2021/06/19 04:48:04;;;;;;;5.50;2.40;;;26.70;56.40;;;;;;5012566;28;20395;-66
2021/06/19 04:50:31;;;;;;;3.33;2.40;;;26.70;56.40;;;;;;5012619;28;20045;-60
2021/06/19 04:52:58;;;;;;;4.22;2.45;;;26.70;56.50;;;;;;5012214;28;20096;-64
2021/06/19 04:55:24;;;;;;;3.28;2.13;;;26.70;56.40;;;;;;5012515;28;20512;-62
2021/06/19 04:57:54;;;;;;;3.22;2.20;;;26.70;56.50;;;;;;5011923;28;20097;-64
2021/06/19 05:00:20;;;;;;;5.45;2.67;;;26.70;56.50;;;;;;5027806;28;20120;-66
2021/06/19 05:02:47;;;;;;;5.72;2.58;;;26.70;56.50;;;;;;5011690;28;20164;-65
2021/06/19 05:05:13;;;;;;;4.70;2.13;;;26.70;56.50;;;;;;5012760;28;20616;-62
2021/06/19 05:07:39;;;;;;;2.45;2.20;;;26.70;56.50;;;;;;5009697;28;20041;-62
2021/06/19 05:10:07;;;;;;;5.53;2.30;;;26.70;56.50;;;;;;5012227;28;20038;-62
2021/06/19 05:12:34;;;;;;;2.95;2.13;;;26.70;56.50;;;;;;5011619;28;20391;-60
2021/06/19 05:15:00;;;;;;;7.65;2.50;;;26.70;56.50;;;;;;5012441;28;20036;-64
2021/06/19 05:17:27;;;;;;;4.53;2.40;;;26.70;56.50;;;;;;5012481;28;20084;-62
2021/06/19 05:19:54;;;;;;;7.30;2.88;;;26.70;56.60;;;;;;5010743;28;21088;-63
2021/06/19 05:22:19;;;;;;;5.32;2.67;;;26.70;56.60;;;;;;5012113;28;20054;-66
2021/06/19 05:24:45;;;;;;;5.70;2.47;;;26.70;56.60;;;;;;5011075;28;20058;-65
2021/06/19 05:27:11;;;;;;;4.18;2.50;;;26.70;56.60;;;;;;5012002;28;20026;-64
2021/06/19 05:29:37;;;;;;;3.05;2.20;;;26.70;56.60;;;;;;5011535;28;20503;-63
2021/06/19 05:32:03;;;;;;;6.50;3.33;;;26.70;56.60;;;;;;5011880;28;20057;-64
2021/06/19 05:34:28;;;;;;;5.65;2.78;;;26.70;56.60;;;;;;5011999;28;20036;-63
2021/06/19 05:36:55;;;;;;;4.50;2.30;;;26.70;56.60;;;;;;5014172;28;20469;-63
2021/06/19 05:39:20;;;;;;;4.45;2.42;;;26.70;56.70;;;;;;5025666;28;20105;-63
2021/06/19 05:41:46;;;;;;;6.72;2.50;;;26.70;56.70;;;;;;5012543;28;20104;-63
2021/06/19 05:44:12;;;;;;;4.32;2.75;;;26.70;56.70;;;;;;5011533;28;20482;-63
2021/06/19 05:46:37;;;;;;;5.97;2.67;;;26.70;56.70;;;;;;5010913;28;20029;-62
2021/06/19 05:49:05;;;;;;;4.18;2.40;;;26.70;56.70;;;;;;5011633;28;20026;-63
2021/06/19 05:51:31;;;;;;;3.63;2.47;;;26.70;56.70;;;;;;5011173;28;20092;-59
2021/06/19 05:53:57;;;;;;;3.42;2.20;;;26.70;56.70;;;;;;5011319;28;20045;-64
2021/06/19 05:56:22;;;;;;;3.65;2.33;;;26.70;56.80;;;;;;5011636;28;20471;-65
2021/06/19 05:58:48;;;;;;;5.32;2.47;;;26.70;56.70;;;;;;5010678;28;20116;-65
2021/06/19 06:01:14;;;;;;;4.60;2.72;;;26.70;56.70;;;;;;5011143;28;20046;-65
2021/06/19 06:03:39;;;;;;;3.80;2.53;;;26.70;56.80;;;;;;5010968;28;20025;-62
2021/06/19 06:06:05;;;;;;;4.88;2.47;;;26.70;56.70;;;;;;5011708;28;20033;-66
2021/06/19 06:08:31;;;;;;;3.92;2.20;;;26.70;56.80;;;;;;5011632;28;20388;-61
2021/06/19 06:10:56;;;;;;;3.38;2.35;;;26.70;56.80;;;;;;5011400;28;20108;-63
2021/06/19 06:13:22;;;;;;;3.95;2.40;;;26.70;56.80;;;;;;5011807;28;20029;-64
2021/06/19 06:15:48;;;;;;;4.65;2.58;;;26.80;56.80;;;;;;5010073;28;20041;-64
2021/06/19 06:18:13;;;;;;;5.13;2.83;;;26.80;56.80;;;;;;5011515;28;20037;-65
2021/06/19 06:20:39;;;;;;;5.15;2.70;;;26.80;56.80;;;;;;5010678;28;20121;-62
2021/06/19 06:23:05;;;;;;;3.28;2.60;;;26.70;56.80;;;;;;5017409;28;20045;-66
2021/06/19 06:25:31;;;;;;;5.93;2.38;;;26.80;56.80;;;;;;5018012;28;20100;-66
2021/06/19 06:27:56;;;;;;;3.42;2.00;;;26.80;56.90;;;;;;5016470;28;20083;-66
2021/06/19 06:30:22;;;;;;;4.88;2.28;;;26.80;56.80;;;;;;5017838;28;20018;-65
2021/06/19 06:32:48;;;;;;;4.07;2.55;;;26.80;56.80;;;;;;5016016;28;20037;-66
2021/06/19 06:35:14;;;;;;;4.30;2.78;;;26.80;56.80;;;;;;5017844;28;20449;-67
2021/06/19 06:37:40;;;;;;;3.80;2.58;;;26.80;56.90;;;;;;5016593;28;20030;-66
2021/06/19 06:40:09;;;;;;;4.35;2.42;;;26.80;56.90;;;;;;5017563;28;20088;-65
2021/06/19 06:42:34;;;;;;;4.53;2.90;;;26.80;56.90;;;;;;5017331;28;20044;-60
2021/06/19 06:45:00;;;;;;;5.43;2.33;;;26.80;56.90;;;;;;5017363;28;20030;-66
2021/06/19 06:47:26;;;;;;;3.22;2.30;;;26.80;56.90;;;;;;5017341;28;20032;-65
2021/06/19 06:49:51;;;;;;;3.35;2.60;;;26.80;56.90;;;;;;5008972;28;20100;-65
2021/06/19 06:52:17;;;;;;;4.45;2.95;;;26.80;56.80;;;;;;5017584;28;20483;-67
2021/06/19 06:54:43;;;;;;;4.40;2.22;;;26.80;56.90;;;;;;5016996;28;20034;-65
2021/06/19 06:57:10;;;;;;;4.18;2.47;;;26.80;56.80;;;;;;5017396;28;20030;-66
2021/06/19 06:59:36;;;;;;;4.75;2.45;;;26.80;56.90;;;;;;5017272;28;20065;-59
2021/06/19 07:02:02;;;;;;;4.47;2.78;;;26.80;56.90;;;;;;5017555;28;20053;-65
2021/06/19 07:04:28;;;;;;;5.47;2.80;;;26.80;56.90;;;;;;5017525;28;20550;-65
2021/06/19 07:06:54;;;;;;;4.90;2.85;;;26.80;56.90;;;;;;5017280;28;20033;-65
2021/06/19 07:09:19;;;;;;;4.57;2.70;;;26.80;56.90;;;;;;5017639;28;20030;-66
2021/06/19 07:11:45;;;;;;;3.85;2.58;;;26.80;56.90;;;;;;5016923;28;20034;-66
2021/06/19 07:14:11;;;;;;;3.05;2.47;;;26.80;56.90;;;;;;5010582;28;20038;-64
2021/06/19 07:16:36;;;;;;;7.30;3.13;;;26.80;56.90;;;;;;5008625;28;20108;-59
2021/06/19 07:19:02;;;;;;;3.05;2.58;;;26.80;57.00;;;;;;5009782;28;20045;-66
2021/06/19 07:21:29;;;;;;;2.88;2.50;;;26.80;56.90;;;;;;5010746;28;20033;-66
2021/06/19 07:23:56;;;;;;;5.78;2.78;;;26.80;57.00;;;;;;5009671;28;20201;-65
2021/06/19 07:26:22;;;;;;;4.50;2.30;;;26.80;56.90;;;;;;5009038;28;20037;-62
2021/06/19 07:28:48;;;;;;;4.72;2.55;;;26.80;56.90;;;;;;5007739;28;20033;-63
2021/06/19 07:31:14;;;;;;;4.97;2.65;;;26.80;57.00;;;;;;5009704;28;20483;-63
2021/06/19 07:33:40;;;;;;;5.13;2.40;;;26.80;57.00;;;;;;5007216;28;20494;-62
2021/06/19 07:36:07;;;;;;;4.20;3.17;;;26.80;57.30;;;;;;5006240;28;20038;-62
2021/06/19 07:38:33;;;;;;;5.50;3.28;;;26.80;57.40;;;;;;5006560;28;20369;-65
2021/06/19 07:40:59;;;;;;;6.78;3.72;;;26.80;57.40;;;;;;5006150;28;20116;-62
2021/06/19 07:43:25;;;;;;;8.23;3.75;;;26.80;57.40;;;;;;5010712;28;20032;-63
2021/06/19 07:45:52;;;;;;;10.45;4.47;;;26.80;57.30;;;;;;5013898;28;20443;-64
2021/06/19 07:48:18;;;;;;;7.78;3.55;;;26.80;57.40;;;;;;5024776;28;20092;-65
2021/06/19 07:50:44;;;;;;;7.60;4.43;;;26.80;57.50;;;;;;4999991;28;20506;-65
2021/06/19 07:53:10;;;;;;;8.65;3.20;;;26.80;57.50;;;;;;5005872;28;20052;-65
2021/06/19 07:55:36;;;;;;;6.53;4.05;;;26.90;57.60;;;;;;5008813;28;20033;-60
2021/06/19 07:58:02;;;;;;;6.95;3.95;;;26.90;57.60;;;;;;5003501;28;20032;-61
2021/06/19 08:00:30;;;;;;;8.60;4.10;;;26.90;57.50;;;;;;5007542;28;20384;-63
2021/06/19 08:02:59;;;;;;;7.82;3.63;;;26.90;57.60;;;;;;5003767;28;20053;-65
2021/06/19 08:05:25;;;;;;;6.53;3.80;;;26.90;57.70;;;;;;5003604;28;20038;-64
2021/06/19 08:07:51;;;;;;;6.88;4.43;;;26.90;57.80;;;;;;5007710;28;20040;-63
2021/06/19 08:10:18;;;;;;;8.68;4.57;;;26.90;57.90;;;;;;5011861;28;20083;-64
2021/06/19 08:12:44;;;;;;;11.43;4.57;;;26.90;57.80;;;;;;5011072;28;20037;-64
2021/06/19 08:15:11;;;;;;;6.30;3.80;;;26.90;57.60;;;;;;5007969;28;20033;-65
2021/06/19 08:17:36;;;;;;;8.15;3.90;;;26.90;57.80;;;;;;5009867;28;20034;-60
2021/06/19 08:20:04;;;;;;;7.40;3.67;;;27.00;57.90;;;;;;5011067;28;20029;-66
2021/06/19 08:22:30;;;;;;;7.63;3.97;;;26.90;57.70;;;;;;5002727;28;20042;-67
2021/06/19 08:24:56;;;;;;;10.65;4.45;;;27.00;58.70;;;;;;5002520;28;20017;-68
2021/06/19 08:27:25;;;;;;;6.97;3.90;;;27.00;58.00;;;;;;5008732;28;20088;-65
2021/06/19 08:29:54;;;;;;;6.47;3.60;;;27.10;58.10;;;;;;5008442;28;20702;-65
2021/06/19 08:32:20;;;;;;;7.18;4.05;;;27.10;58.10;;;;;;5009976;28;20037;-63
2021/06/19 08:34:46;;;;;;;9.50;4.43;;;27.10;58.20;;;;;;5003495;28;20026;-67
2021/06/19 08:37:12;;;;;;;6.50;3.83;;;27.10;58.30;;;;;;5006806;28;20057;-64
2021/06/19 08:39:37;;;;;;;7.57;4.82;;;27.10;58.10;;;;;;5011500;28;20030;-57
2021/06/19 08:42:04;;;;;;;8.02;4.13;;;27.10;58.40;;;;;;5014064;28;20080;-65
2021/06/19 08:44:30;;;;;;;6.97;3.72;;;27.10;58.40;;;;;;5007312;28;20026;-69
2021/06/19 08:46:58;;;;;;;6.05;4.10;;;27.10;58.60;;;;;;5006411;28;20096;-65
2021/06/19 08:49:26;;;;;;;7.22;4.10;;;27.10;58.60;;;;;;5008405;28;20081;-65
2021/06/19 08:51:53;;;;;;;7.93;4.03;;;27.10;58.70;;;;;;4998658;28;20049;-69
2021/06/19 08:54:21;;;;;;;7.50;4.40;;;27.10;58.50;;;;;;5001640;28;20040;-68
2021/06/19 08:56:47;;;;;;;7.68;4.43;;;27.10;58.50;;;;;;5002087;28;20037;-70
2021/06/19 08:59:13;;;;;;;8.63;4.55;;;27.20;58.40;;;;;;5003082;28;20039;-64
2021/06/19 09:01:39;;;;;;;14.23;4.57;;;27.20;58.30;;;;;;5006491;28;20490;-60
2021/06/19 09:04:08;;;;;;;12.30;4.80;;;27.10;58.50;;;;;;5007858;28;20034;-67
2021/06/19 09:06:38;;;;;;;7.80;4.47;;;27.10;58.40;;;;;;5008252;28;20108;-68
2021/06/19 09:09:18;;;;;;;8.27;4.28;;;27.10;58.40;;;;;;5006162;28;20057;-68
2021/06/19 09:11:52;;;;;;;8.48;4.53;;;27.10;58.40;;;;;;5030217;28;20026;-67
2021/06/19 09:14:25;;;;;;;7.63;4.20;;;27.10;58.40;;;;;;5005429;28;20026;-67
2021/06/19 09:17:05;;;;;;;9.25;4.63;;;27.10;58.40;;;;;;5007474;28;20439;-64
2021/06/19 09:19:36;;;;;;;9.10;3.90;;;27.10;58.40;;;;;;5007318;28;20038;-65
2021/06/19 09:22:15;;;;;;;8.73;4.25;;;27.10;58.40;;;;;;5007700;28;20034;-66
2021/06/19 09:24:57;;;;;;;7.35;4.30;;;27.10;58.40;;;;;;5005959;28;20037;-67
2021/06/19 09:27:42;;;;;;;6.72;4.18;;;27.10;58.30;;;;;;5009998;28;20447;-67
2021/06/19 09:30:13;;;;;;;6.32;4.05;;;27.10;58.70;;;;;;5007611;28;20036;-66
2021/06/19 09:32:44;;;;;;;5.50;3.92;;;27.10;59.20;;;;;;5003601;28;20036;-62
2021/06/19 09:35:15;;;;;;;6.43;4.03;;;27.10;58.40;;;;;;5009420;28;20034;-67
2021/06/19 09:37:43;;;;;;;6.93;3.90;;;27.10;58.40;;;;;;5003809;28;20038;-65
2021/06/19 09:40:33;;;;;;;7.72;4.63;;;27.10;58.40;;;;;;5012189;28;20033;-64
2021/06/19 09:43:24;;;;;;;7.75;4.65;;;27.10;58.40;;;;;;5007897;28;20133;-66
2021/06/19 09:46:09;;;;;;;8.13;4.05;;;27.10;58.50;;;;;;5011507;28;20498;-66
2021/06/19 09:48:46;;;;;;;13.00;4.97;;;27.20;58.50;;;;;;5012143;28;20042;-68
2021/06/19 09:51:23;;;;;;;9.93;5.13;;;27.30;58.40;;;;;;5010570;28;20038;-65
2021/06/19 09:54:08;;;;;;;10.00;5.22;;;27.40;58.10;;;;;;5003559;28;20487;-67
2021/06/19 09:56:49;;;;;;;9.23;5.20;;;27.40;58.00;;;;;;5011174;28;20061;-69
2021/06/19 09:59:39;;;;;;;10.15;4.43;;;27.40;58.00;;;;;;5011338;28;20038;-65
2021/06/19 10:02:21;;;;;;;10.35;4.55;;;27.40;57.90;;;;;;5010225;28;20064;-66
2021/06/19 10:04:57;;;;;;;8.05;4.80;;;27.40;58.00;;;;;;5010715;28;20022;-68
2021/06/19 10:07:32;;;;;;;9.18;5.20;;;27.30;58.10;;;;;;5006903;28;20030;-63
2021/06/19 10:09:58;;;;;;;9.30;4.47;;;27.30;58.30;;;;;;5010932;28;20029;-64
2021/06/19 10:12:30;;;;;;;8.70;4.75;;;27.20;58.40;;;;;;5011174;28;20037;-67
2021/06/19 10:15:00;;;;;;;12.85;5.78;;;27.30;58.50;;;;;;5010757;28;20049;-66
2021/06/19 10:17:43;;;;;;;6.65;5.28;;;27.40;58.40;;;;;;5010724;28;20515;-64
2021/06/19 10:20:11;;;;;;;10.82;5.78;;;27.40;58.40;;;;;;5011073;28;20033;-68
2021/06/19 10:22:40;;;;;;;13.65;6.00;;;27.50;58.60;;;;;;5010944;28;20076;-68
2021/06/19 10:25:10;;;;;;;11.88;5.43;;;27.50;58.70;;;;;;5011398;28;20076;-67
2021/06/19 10:27:45;;;;;;;8.18;5.70;;;27.50;58.70;;;;;;5011223;28;20030;-63
2021/06/19 10:30:12;;;;;;;10.68;6.25;;;27.60;58.70;;;;;;5011527;28;20022;-65
2021/06/19 10:32:49;;;;;;;10.38;6.28;;;27.60;58.40;;;;;;5010861;28;20087;-62
2021/06/19 10:35:20;;;;;;;9.57;5.75;;;27.60;58.40;;;;;;5003093;28;20505;-65
2021/06/19 10:37:48;;;;;;;11.85;6.00;;;27.60;58.90;;;;;;5014013;28;20436;-64
2021/06/19 10:40:21;;;;;;;12.50;5.97;;;27.60;59.50;;;;;;5012240;28;20514;-63
2021/06/19 10:42:48;;;;;;;9.85;5.45;;;27.60;59.00;;;;;;5011461;28;20101;-65
2021/06/19 10:45:29;;;;;;;9.27;5.78;;;27.50;59.20;;;;;;5010872;28;20034;-63
2021/06/19 10:48:00;;;;;;;9.27;5.47;;;27.60;58.70;;;;;;5003141;28;20076;-66
2021/06/19 10:50:26;;;;;;;10.82;6.13;;;27.70;58.60;;;;;;5011252;28;20125;-62
2021/06/19 10:53:16;;;;;;;15.73;6.40;;;27.70;59.10;;;;;;5009580;28;20525;-64
2021/06/19 10:55:49;;;;;;;23.55;6.22;;;27.70;58.70;;;;;;5011098;28;20061;-59
2021/06/19 10:58:21;;;;;;;10.55;5.85;;;27.60;58.60;;;;;;5010511;28;20498;-60
2021/06/19 11:00:52;;;;;;;13.02;5.95;;;27.70;58.20;;;;;;5010226;28;20026;-60
2021/06/19 11:03:40;;;;;;;11.93;5.22;;;27.80;58.00;;;;;;5011027;28;20030;-63
2021/06/19 11:06:23;;;;;;;9.95;5.65;;;27.80;57.80;;;;;;5004156;28;20042;-61
2021/06/19 11:09:13;;;;;;;9.57;5.80;;;27.90;58.10;;;;;;5012977;28;20030;-62
2021/06/19 11:11:54;;;;;;;10.27;5.43;;;27.90;58.00;;;;;;5029750;28;20049;-62
2021/06/19 11:14:41;;;;;;;10.00;5.82;;;27.90;57.80;;;;;;5014765;28;20101;-62
2021/06/19 11:17:23;;;;;;;12.02;4.57;;;27.90;56.40;;;;;;5013772;28;20059;-63
2021/06/19 11:19:52;;;;;;;10.93;4.97;;;28.00;56.50;;;;;;5013980;28;20125;-64
2021/06/19 11:22:54;;;;;;;9.93;5.32;;;28.00;56.50;;;;;;5013968;28;20105;-63
2021/06/19 11:26:12;;;;;;;11.77;5.22;;;28.00;56.40;;;;;;4992214;28;20042;-65
2021/06/19 11:28:32;;;;;;;15.80;5.55;;;28.00;56.80;;;;;;5011127;28;20499;-61
2021/06/19 11:31:16;;;;;;;12.13;6.35;;;28.10;57.00;;;;;;5013390;28;20034;-68
2021/06/19 11:33:43;;;;;;;10.13;5.18;;;28.10;57.00;;;;;;5028567;28;20034;-59
2021/06/19 11:36:08;;;;;;;14.40;5.05;;;28.10;57.00;;;;;;5045600;28;20041;-61
2021/06/19 11:38:50;;;;;;;8.63;5.10;;;28.10;57.00;;;;;;5012591;28;20033;-62
2021/06/19 11:41:19;;;;;;;14.38;5.53;;;28.10;56.90;;;;;;5013257;28;20105;-63
2021/06/19 11:43:45;;;;;;;13.95;5.30;;;28.10;56.40;;;;;;5019069;28;20037;-59
2021/06/19 11:46:12;;;;;;;16.70;4.97;;;28.10;56.90;;;;;;5024906;28;20112;-62
2021/06/19 11:49:01;;;;;;;11.00;5.60;;;28.20;56.80;;;;;;5013830;28;20030;-64
2021/06/19 11:51:31;;;;;;;11.20;5.70;;;28.20;56.70;;;;;;5013507;28;20057;-61
2021/06/19 11:53:57;;;;;;;9.70;5.32;;;28.20;56.80;;;;;;5012819;28;20037;-63
2021/06/19 11:56:28;;;;;;;12.95;6.18;;;28.20;57.30;;;;;;5041808;28;20395;-62
2021/06/19 11:59:02;;;;;;;11.80;6.07;;;28.20;56.70;;;;;;5011197;28;20041;-65
2021/06/19 12:01:36;;;;;;;15.98;5.93;;;28.20;57.30;;;;;;5005275;28;20041;-60
2021/06/19 12:04:04;;;;;;;10.82;5.55;;;28.00;57.40;;;;;;5013284;28;20029;-68
2021/06/19 12:06:42;;;;;;;13.60;4.95;;;27.90;57.80;;;;;;5013495;28;20356;-66
2021/06/19 12:09:32;;;;;;;11.70;6.10;;;27.80;58.10;;;;;;5012712;28;20026;-65
2021/06/19 12:12:14;;;;;;;9.98;5.85;;;27.80;58.40;;;;;;5011829;28;20037;-64
2021/06/19 12:14:41;;;;;;;11.40;5.68;;;27.70;58.20;;;;;;5013642;28;20452;-63
2021/06/19 12:17:08;;;;;;;9.68;5.35;;;27.80;58.50;;;;;;5012581;28;20041;-66
2021/06/19 12:19:39;;;;;;;8.25;4.57;;;27.70;58.40;;;;;;5012629;28;20360;-65
2021/06/19 12:22:07;;;;;;;12.90;5.27;;;27.70;57.70;;;;;;5012719;28;20029;-66
2021/06/19 12:24:35;;;;;;;8.45;5.07;;;27.70;57.50;;;;;;5013348;28;20062;-63
2021/06/19 12:27:01;;;;;;;9.90;5.00;;;27.70;57.50;;;;;;5012530;28;20045;-66
2021/06/19 12:29:37;;;;;;;9.80;4.57;;;27.70;57.10;;;;;;5013637;28;20030;-66
2021/06/19 12:32:31;;;;;;;10.70;4.70;;;27.70;56.70;;;;;;5012677;28;20083;-66
2021/06/19 12:35:06;;;;;;;7.97;4.57;;;27.70;56.50;;;;;;5012537;28;20038;-65
2021/06/19 12:37:34;;;;;;;7.75;4.22;;;27.70;56.10;;;;;;5013268;28;20045;-62
2021/06/19 12:40:02;;;;;;;7.60;4.65;;;27.70;55.80;;;;;;5012908;28;20117;-63
2021/06/19 12:42:33;;;;;;;12.27;4.78;;;27.70;56.10;;;;;;5004733;28;20034;-64
2021/06/19 12:45:32;;;;;;;11.43;4.13;;;27.80;54.70;;;;;;5012251;28;20099;-65
2021/06/19 12:47:58;;;;;;;8.95;4.10;;;27.90;52.90;;;;;;5007822;28;20037;-63
2021/06/19 12:50:32;;;;;;;12.88;5.38;;;28.10;51.20;;;;;;5012955;28;20042;-65
2021/06/19 12:53:13;;;;;;;10.15;4.43;;;28.20;49.80;;;;;;5011801;28;20108;-63
2021/06/19 12:55:54;;;;;;;10.55;4.13;;;28.20;49.90;;;;;;5011887;28;20030;-62
2021/06/19 12:58:21;;;;;;;14.90;4.33;;;28.10;49.90;;;;;;5012696;28;20036;-62